Terminal Aerodrome Forecast
Issued by NWS

Home | Current Version | Previous Version | Text Only | Print | Product List | Glossary On
Versions: 1 2 3 4 5 6 7 8 9 10 11 12 13 14 15
939
FTUS46 KSTO 241129
TAFRBL
TAF
KRBL 241129Z 2412/2512 35008KT P6SM BKN035 OVC050
      TEMPO 2412/2415 P6SM -SHRA SCT010 OVC022
     FM241700 34006KT P6SM FEW250=

USA.gov is the U.S. government's official web portal to all federal, state and local government web resources and services.